首页
METAR-TAF:

METAR-TAF

机场 :

香港國際機場

香港, 中华人民共和国

纬度: 22-19N, 经度: 113-55E, 海拔: 9米

当前天气观测

该预报发布于35分钟前的14:00 UTC
风速7节,风向,在东转东北东南之间变化
温度 26°C
湿度 70%
气压 1017 hPa
能见度10公里或以上
少量云层高于2500英尺
散云层高于4000英尺

METAR: VHHH 231400Z 09007KT 070V140 9999 FEW025 SCT040 26/20 Q1017 NOSIG

时间: 22:35 (14:35 UTC)

预报

该预报发布于3小时和35分钟前的11:00 UTC
预报有效从23日的 12点(UTC)到 24日的 18点(UTC)
风速10节,风向
能見度: 8000
少量云层高于2500英尺
散云层高于4000英尺
短暂存在
从 23日的 12点(UTC)到 23日的 16点(UTC)
风速10节,风向北转西北
短暂存在
从 23日的 18点(UTC)到 24日的 01点(UTC)
能見度: 4000
轻雾, 小雨
短暂存在
从 24日的 03点(UTC)到 24日的 10点(UTC)
风速10节,风向西北

TAF: VHHH 231100Z 2312/2418 08010KT 8000 FEW025 SCT040 TX28/2406Z TN24/2322Z TEMPO 2312/2316 33010KT TEMPO 2318/2401 4000 BR -RA TEMPO 2403/2410 32010KT

超过4000个机场的气象观测和天气预报(METAR&TAF报告)。

可查询的气象台以黄色和红色小点在地图上表示。

将鼠标移到小点上方,可查看气象台名称。

然后点击查看天气观测和预报。

如需切换地图:点击带黑十字的绿色按钮放大地图;点击带横线的绿色按钮缩小地图;或者点击绿色箭头查看邻近地区的地图。


METAR-TAF: